• Join FlightAware (Why Join?)
  • Login
  • US Flag GB Flag 
12:01 EDT


 

Airport Tracker/Info


-or-


 

Live Flight TrackerFlight Track Log ✈ SKW5564 ✈ 12-Jul-2013 ✈ KSFO - KSLC

Flight Track Log - Related Links

Times and Time Zones

All times are in EDT time to prevent confusion due to time zone crossing. See the SKW5564 flight status page for this flight to view local times or setup timezone preferences in your user account.

Time Position Orientation Groundspeed Altitude Reporting Facility
EDT Latitude Longitude Course Direction KTS MPH feet Rate Location/Type
10:48 37.6500 -122.3500 50° Northeast 158 182 1,400  Level Northern Cal TRACON
10:49 37.6833 -122.3000 50° Northeast 207 238 3,300 2,040 Climbing Northern Cal TRACON
10:50 37.7333 -122.2333 47° Northeast 316 364 5,500 2,100 Climbing Northern Cal TRACON
10:51 37.6350 -122.4235 120° Southeast  Level FlightAware Approximate
10:52 37.6679 -122.2899 50° Northeast  Level FlightAware Approximate
10:53 37.7536 -122.1675 46° Northeast  Level FlightAware Approximate
10:53 37.8642 -122.0450 49° Northeast 315 362 10,600  Level Oakland Center
10:54 37.8328 -122.0592 50° Northeast  Level FlightAware Approximate
10:54 37.9314 -121.9517 48° Northeast 356 410 13,000  Level Oakland Center
10:55 37.9994 -121.8583 47° Northeast 362 417 15,300 2,040 Climbing Oakland Center
10:56 38.0694 -121.7608 48° Northeast 373 429 17,300 1,920 Climbing Oakland Center
10:57 38.1403 -121.6622 48° Northeast 378 435 19,300 1,740 Climbing Oakland Center
10:58 38.2119 -121.5608 48° Northeast 387 445 20,900 1,680 Climbing Oakland Center
10:59 38.2953 -121.4467 47° Northeast 402 463 22,800 1,560 Climbing Oakland Center
11:00 38.3686 -121.3375 49° Northeast 408 470 24,200 1,320 Climbing Oakland Center
11:01 38.4486 -121.2050 52° Northeast 424 488 25,600 1,320 Climbing Oakland Center
11:02 38.5269 -121.0781 52° Northeast 439 505 27,000 1,260 Climbing Oakland Center
11:03 38.6028 -120.9564 51° Northeast 443 510 28,200 1,140 Climbing Oakland Center
11:04 38.6794 -120.8317 52° Northeast 449 517 29,400 1,080 Climbing Oakland Center
11:05 38.7567 -120.7039 52° Northeast 455 524 30,400 840 Climbing Oakland Center
11:06 38.8361 -120.5736 52° Northeast 463 533 31,200 780 Climbing Oakland Center
11:07 38.9161 -120.4400 52° Northeast 473 544 32,000 840 Climbing Oakland Center
11:08 39.0131 -120.2811 52° Northeast 471 542 33,000 480 Climbing Oakland Center
11:09 39.0953 -120.1419 53° Northeast 488 562 33,000  Level Oakland Center
11:10 39.1758 -120.0119 51° Northeast 490 564 33,000  Level Oakland Center
11:11 39.2586 -119.8761 52° Northeast 484 557 33,000  Level Oakland Center
11:12 39.3375 -119.7414 53° Northeast 470 541 33,000  Level Oakland Center
11:13 39.4189 -119.6028 53° Northeast 478 550 33,000  Level Oakland Center
11:14 39.5000 -119.4639 53° Northeast 480 552 33,000  Level Oakland Center
11:15 39.5836 -119.3217 53° Northeast 490 564 33,000 420 Level Oakland Center
11:16 39.6847 -119.1469 53° Northeast 499 574 33,900 840 Climbing Oakland Center
11:17 39.7678 -119.0036 53° Northeast 494 568 34,800 780 Climbing Oakland Center
11:18 39.8519 -118.8564 53° Northeast 500 575 35,500 780 Climbing Oakland Center
11:19 39.9231 -118.7025 59° Northeast 493 567 36,500 720 Climbing Oakland Center
11:21 39.9892 -118.5419 62° Northeast 498 573 37,000 240 Climbing Oakland Center
11:22 40.0558 -118.3778 62° Northeast 507 583 37,000 120 Level Oakland Center
11:23 40.1236 -118.2083 62° Northeast 521 600 37,300 600 Climbing Oakland Center
11:23 40.1767 -118.0758 62° Northeast 523 602 38,100 900 Climbing Salt Lake Center
11:24 40.2233 -117.9133 69° East 504 580 39,000 420 Climbing Salt Lake Center
11:25 40.2689 -117.7189 73° East 500 575 39,000  Level Salt Lake Center
11:26 40.3075 -117.5503 73° East 503 579 39,000  Level Salt Lake Center
11:27 40.3528 -117.3550 73° East 502 578 39,000  Level Salt Lake Center
11:29 40.3911 -117.1878 73° East 501 577 39,000  Level Salt Lake Center
11:30 40.4369 -116.9933 73° East 497 572 39,000  Level Salt Lake Center
11:31 40.4725 -116.8186 75° East 503 579 39,000  Level Salt Lake Center
11:32 40.5133 -116.6444 73° East 504 580 39,000  Level Salt Lake Center
11:33 40.5558 -116.4475 74° East 500 575 39,000  Level Salt Lake Center
11:34 40.5761 -116.2758 81° East 497 572 39,000  Level Salt Lake Center
11:35 40.5908 -116.0758 84° East 492 566 39,000  Level Salt Lake Center
11:36 40.6031 -115.9056 85° East 490 564 39,000  Level Salt Lake Center
11:37 40.6158 -115.7358 84° East 488 562 39,000  Level Salt Lake Center
11:38 40.6292 -115.5372 85° East 486 559 39,000  Level Salt Lake Center
11:39 40.6422 -115.3678 84° East 486 559 39,000  Level Salt Lake Center
11:40 40.6558 -115.1683 85° East 487 560 39,000  Level Salt Lake Center
11:41 40.6708 -114.9983 83° East 489 563 39,000 -600 Level Salt Lake Center
11:42 40.6839 -114.7978 85° East 491 565 37,800 -1,200 Descending Salt Lake Center
11:43 40.6936 -114.6350 85° East 492 566 36,600 -1,380 Descending Salt Lake Center
11:44 40.7064 -114.4214 85° East 489 563 35,000 -1,320 Descending Salt Lake Center
11:45 40.7100 -114.2400 88° East 494 568 33,900 -1,020 Descending Salt Lake Center
11:46 40.7167 -114.0578 87° East 498 573 32,900 -1,440 Descending Salt Lake Center
11:47 40.7222 -113.8758 88° East 500 575 31,000 -2,280 Descending Salt Lake Center
11:48 40.7275 -113.6978 88° East 490 564 28,300 -2,640 Descending Salt Lake Center
11:49 40.7269 -113.5275 90° East 470 541 25,600 -2,760 Descending Salt Lake Center
11:50 40.7267 -113.3344 90° East 444 511 22,600 -2,640 Descending Salt Lake Center
11:51 40.7239 -113.1831 91° East 420 483 20,200 -2,100 Descending Salt Lake Center
11:52 40.7231 -113.0417 90° East 388 447 18,300 -1,560 Descending Salt Lake Center
11:53 40.7225 -112.9108 90° East 360 414 17,000 -720 Descending Salt Lake Center
11:54 40.7267 -112.8036 87° East 342 394 17,000  Level Salt Lake Center
11:55 40.7233 -112.7172 93° East 345 397 17,000  Level Salt Lake Center
11:55 40.7225 -112.6614 91° East 345 397 17,000 -960 Level Salt Lake Center
11:56 40.7192 -112.5125 92° East 336 387 15,500 -1,560 Descending Salt Lake Center
11:57 40.7011 -112.4019 102° East 312 359 13,800 -1,680 Descending Salt Lake Center
11:58 40.6789 -112.2914 105° East 313 360 12,100 -900 Descending Salt Lake Center
12:00 40.6808 -112.1928 88° East 269 310 12,000 -480 Descending Salt Lake Center
12:01 40.7261 -112.1381 42° Northeast 226 260 11,200 -540 Descending Salt Lake Center
12:02 40.7789 -112.0975 30° Northeast 221 254 11,000 -480 Descending Salt Lake Center
12:03 40.8511 -112.1042 356° North 216 249 10,300 -1,020 Descending Salt Lake Center
12:04 40.9119 -112.1106 355° North 218 251 9,000 -1,200 Descending Salt Lake Center
12:05 40.9642 -112.1056 North 199 229 7,800 -1,260 Descending Salt Lake Center
12:06 40.9683 -112.0394 85° East 194 223 6,400 -1,380 Descending Salt Lake Center